Time;durP1;ratioP1;P1;durP2;ratioP2;P2;SDS_P1;SDS_P2;PMS_P1;PMS_P2;Temp;Humidity;BMP_temperature;BMP_pressure;BME280_temperature;BME280_humidity;BME280_pressure;Samples;Min_cycle;Max_cycle;Signal;HPM_P1;HPM_P2
2023/07/25 00:01:15;;;;;;;7.53;3.83;;;14.20;90.90;;;;;;5032358;28;20025;-47
2023/07/25 00:03:41;;;;;;;7.72;3.92;;;14.20;91.00;;;;;;5024353;28;20048;-46
2023/07/25 00:06:08;;;;;;;5.03;3.28;;;14.10;91.10;;;;;;5034029;28;20055;-47
2023/07/25 00:08:35;;;;;;;7.65;4.10;;;14.10;91.20;;;;;;5028111;28;20092;-46
2023/07/25 00:11:01;;;;;;;9.93;4.15;;;14.10;91.30;;;;;;5026744;28;20061;-46
2023/07/25 00:13:29;;;;;;;5.35;3.15;;;14.10;91.40;;;;;;5030602;28;20102;-46
2023/07/25 00:15:57;;;;;;;10.95;4.65;;;14.20;91.50;;;;;;5019980;28;20060;-48
2023/07/25 00:18:24;;;;;;;9.27;3.70;;;14.20;91.60;;;;;;5033955;28;20098;-47
2023/07/25 00:20:50;;;;;;;9.52;3.97;;;14.20;91.70;;;;;;5033912;28;20018;-46
2023/07/25 00:23:18;;;;;;;10.55;3.70;;;14.20;91.70;;;;;;5025962;28;20040;-46
2023/07/25 00:25:45;;;;;;;11.18;4.15;;;14.20;91.50;;;;;;5033085;28;20095;-46
2023/07/25 00:28:11;;;;;;;5.38;3.38;;;14.20;91.40;;;;;;5016365;28;20469;-46
2023/07/25 00:30:43;;;;;;;6.47;3.60;;;14.20;91.30;;;;;;5031603;28;20079;-47
2023/07/25 00:33:10;;;;;;;5.05;2.97;;;14.10;91.10;;;;;;5018306;28;20044;-46
2023/07/25 00:35:35;;;;;;;6.53;3.97;;;14.10;91.10;;;;;;5033370;28;20021;-46
2023/07/25 00:38:04;;;;;;;9.23;3.97;;;14.10;91.10;;;;;;5030719;28;20704;-49
2023/07/25 00:40:30;;;;;;;13.77;5.43;;;14.00;90.90;;;;;;5026300;28;20537;-46
2023/07/25 00:42:57;;;;;;;14.50;4.07;;;14.00;90.80;;;;;;4997023;28;20057;-47
2023/07/25 00:45:26;;;;;;;8.02;4.20;;;13.90;90.70;;;;;;5029778;28;20037;-47
2023/07/25 00:47:52;;;;;;;9.93;4.25;;;13.90;90.70;;;;;;5031487;28;20025;-47
2023/07/25 00:50:21;;;;;;;7.70;4.10;;;13.80;90.70;;;;;;5049233;28;20528;-46
2023/07/25 00:52:48;;;;;;;7.13;3.80;;;13.80;90.70;;;;;;5028330;28;20052;-46
2023/07/25 00:55:18;;;;;;;16.70;5.35;;;13.80;90.70;;;;;;5032027;28;20045;-46
2023/07/25 00:57:44;;;;;;;;;;;13.70;90.60;;;;;;5033458;28;20692;-47
2023/07/25 01:00:12;;;;;;;10.20;3.78;;;13.70;90.70;;;;;;5031348;28;20008;-46
2023/07/25 01:02:41;;;;;;;10.57;4.03;;;13.60;90.60;;;;;;5030910;28;20034;-46
2023/07/25 01:05:09;;;;;;;10.07;4.68;;;13.60;90.60;;;;;;5031944;28;20037;-46
2023/07/25 01:07:38;;;;;;;9.70;4.03;;;13.60;90.50;;;;;;5032799;28;20425;-47
2023/07/25 01:10:07;;;;;;;11.48;4.90;;;13.50;90.60;;;;;;5013664;28;20053;-46
2023/07/25 01:12:32;;;;;;;7.03;4.25;;;13.50;90.60;;;;;;4995867;28;20091;-46
2023/07/25 01:15:04;;;;;;;11.90;6.07;;;13.40;90.70;;;;;;5023736;28;20096;-46
2023/07/25 01:17:31;;;;;;;7.65;3.90;;;13.40;90.70;;;;;;5032194;28;20026;-47
2023/07/25 01:19:58;;;;;;;8.93;3.83;;;13.40;90.60;;;;;;5032109;28;20441;-46
2023/07/25 01:22:26;;;;;;;17.08;4.05;;;13.40;90.50;;;;;;5026552;28;20022;-46
2023/07/25 01:24:54;;;;;;;8.73;4.05;;;13.30;90.60;;;;;;5029952;28;20079;-46
2023/07/25 01:27:21;;;;;;;10.77;3.97;;;13.30;90.60;;;;;;5015902;28;20152;-46
2023/07/25 01:29:48;;;;;;;12.63;4.57;;;13.30;90.60;;;;;;5030742;28;20041;-46
2023/07/25 01:32:15;;;;;;;12.35;3.95;;;13.20;90.60;;;;;;5027205;28;20032;-47
2023/07/25 01:34:43;;;;;;;13.13;4.30;;;13.20;90.60;;;;;;5031086;28;20053;-46
2023/07/25 01:37:15;;;;;;;13.43;5.22;;;13.20;90.60;;;;;;5032933;28;20091;-46
2023/07/25 01:39:44;;;;;;;7.47;3.58;;;13.20;90.40;;;;;;5033010;28;20033;-46
2023/07/25 01:42:10;;;;;;;10.18;4.18;;;13.10;90.30;;;;;;5030580;28;20099;-47
2023/07/25 01:44:38;;;;;;;11.57;4.38;;;13.10;90.30;;;;;;5031130;28;20041;-47
2023/07/25 01:47:07;;;;;;;7.93;3.95;;;13.00;90.10;;;;;;5030143;28;20030;-46
2023/07/25 01:49:35;;;;;;;8.57;4.25;;;12.90;90.30;;;;;;5022551;28;20434;-46
2023/07/25 01:52:03;;;;;;;7.65;4.30;;;12.90;90.10;;;;;;5030812;28;20505;-46
2023/07/25 01:54:30;;;;;;;11.85;4.30;;;12.90;90.20;;;;;;5016438;28;20034;-46
2023/07/25 01:56:57;;;;;;;12.05;4.78;;;12.80;90.20;;;;;;5012199;28;20113;-47
2023/07/25 01:59:28;;;;;;;14.43;4.85;;;12.80;90.40;;;;;;5019882;28;20034;-46
2023/07/25 02:01:56;;;;;;;9.68;4.18;;;12.70;90.50;;;;;;5026568;28;20037;-46
2023/07/25 02:04:24;;;;;;;12.07;5.30;;;12.70;90.50;;;;;;5012811;28;20048;-46
2023/07/25 02:06:51;;;;;;;10.10;4.22;;;12.70;90.60;;;;;;5032224;28;20386;-46
2023/07/25 02:09:23;;;;;;;12.65;4.95;;;12.70;90.60;;;;;;5020136;28;20117;-46
2023/07/25 02:11:51;;;;;;;6.85;4.03;;;12.60;90.60;;;;;;5027558;28;20029;-46
2023/07/25 02:14:18;;;;;;;9.45;4.25;;;12.60;90.60;;;;;;5031609;28;20025;-47
2023/07/25 02:16:44;;;;;;;7.85;3.90;;;12.60;90.50;;;;;;5030862;28;20033;-46
2023/07/25 02:19:13;;;;;;;7.70;4.60;;;12.50;90.50;;;;;;5018786;28;20101;-47
2023/07/25 02:21:43;;;;;;;18.52;5.03;;;12.50;90.70;;;;;;5014439;28;20097;-49
2023/07/25 02:24:13;;;;;;;7.85;3.97;;;12.50;90.80;;;;;;5030024;28;20044;-46
2023/07/25 02:26:39;;;;;;;10.75;3.95;;;12.50;90.90;;;;;;5012272;28;20463;-46
2023/07/25 02:29:06;;;;;;;9.15;4.10;;;12.50;90.90;;;;;;5027031;28;20434;-46
2023/07/25 02:31:32;;;;;;;9.00;4.78;;;12.40;90.80;;;;;;5022224;28;20045;-47
2023/07/25 02:34:03;;;;;;;10.20;4.43;;;12.40;90.90;;;;;;5025474;28;20068;-46
2023/07/25 02:36:32;;;;;;;6.85;4.22;;;12.40;90.90;;;;;;5011960;28;20033;-46
2023/07/25 02:38:59;;;;;;;6.65;3.42;;;12.40;90.70;;;;;;5013268;28;20434;-46
2023/07/25 02:41:25;;;;;;;12.07;4.28;;;12.40;90.90;;;;;;5012439;28;20030;-47
2023/07/25 02:43:51;;;;;;;15.25;5.55;;;12.40;90.80;;;;;;5026806;28;20060;-46
2023/07/25 02:46:16;;;;;;;10.57;4.07;;;12.40;90.80;;;;;;5029169;28;20033;-46
2023/07/25 02:48:43;;;;;;;10.55;3.95;;;12.30;90.80;;;;;;5031083;28;20029;-46
2023/07/25 02:51:12;;;;;;;8.75;4.38;;;12.30;90.90;;;;;;5031301;28;20462;-46
2023/07/25 02:53:41;;;;;;;5.97;3.78;;;12.30;90.80;;;;;;5030621;28;20025;-46
2023/07/25 02:56:07;;;;;;;7.93;3.75;;;12.30;90.80;;;;;;5027086;28;20025;-45
2023/07/25 02:58:35;;;;;;;6.32;4.47;;;12.30;90.80;;;;;;5030540;28;20095;-46
2023/07/25 03:01:03;;;;;;;9.27;5.50;;;12.30;90.90;;;;;;5033745;28;20044;-46
2023/07/25 03:03:30;;;;;;;7.13;4.82;;;12.30;90.90;;;;;;5035790;28;20484;-46
2023/07/25 03:05:56;;;;;;;9.88;4.38;;;12.30;90.90;;;;;;5030011;28;20053;-47
2023/07/25 03:08:24;;;;;;;7.35;3.55;;;12.30;90.90;;;;;;5014836;28;20033;-46
2023/07/25 03:10:51;;;;;;;10.77;4.32;;;12.30;91.00;;;;;;5019899;28;20083;-45
2023/07/25 03:13:18;;;;;;;9.73;3.97;;;12.30;91.10;;;;;;5033332;28;20405;-46
2023/07/25 03:15:46;;;;;;;8.57;4.30;;;12.40;91.20;;;;;;5033221;28;20029;-46
2023/07/25 03:18:13;;;;;;;15.52;4.68;;;12.40;91.30;;;;;;5035328;28;20513;-46
2023/07/25 03:20:39;;;;;;;7.30;4.65;;;12.40;91.10;;;;;;5027116;28;20339;-46
2023/07/25 03:23:06;;;;;;;8.98;4.30;;;12.50;91.40;;;;;;5034819;28;20029;-46
2023/07/25 03:25:33;;;;;;;11.32;5.20;;;12.50;91.40;;;;;;5044726;28;20029;-45
2023/07/25 03:28:00;;;;;;;9.32;4.05;;;12.50;91.30;;;;;;5034190;28;20438;-46
2023/07/25 03:30:25;;;;;;;8.15;4.80;;;12.50;91.30;;;;;;5031892;28;20074;-47
2023/07/25 03:32:52;;;;;;;6.40;4.43;;;12.60;91.30;;;;;;5032123;28;20109;-46
2023/07/25 03:35:20;;;;;;;8.98;4.32;;;12.60;91.40;;;;;;5027648;28;20163;-46
2023/07/25 03:37:48;;;;;;;6.03;4.10;;;12.60;91.30;;;;;;5032482;28;20111;-46
2023/07/25 03:40:16;;;;;;;9.73;3.95;;;12.60;91.30;;;;;;5015286;28;20029;-45
2023/07/25 03:42:43;;;;;;;10.07;4.93;;;12.60;91.40;;;;;;5016616;28;20068;-46
2023/07/25 03:45:15;;;;;;;7.70;4.10;;;12.70;91.60;;;;;;5029550;28;20045;-47
2023/07/25 03:47:43;;;;;;;11.38;3.97;;;12.80;91.70;;;;;;5015364;28;20050;-48
2023/07/25 03:50:10;;;;;;;10.27;4.10;;;12.90;91.70;;;;;;5015094;28;20044;-46
2023/07/25 03:52:38;;;;;;;6.70;3.45;;;12.90;91.60;;;;;;5014876;28;20049;-46
2023/07/25 03:55:06;;;;;;;8.77;4.32;;;12.90;91.70;;;;;;5031145;28;20466;-46
2023/07/25 03:57:33;;;;;;;8.18;4.30;;;12.90;91.70;;;;;;5033885;28;20030;-47
2023/07/25 03:59:59;;;;;;;8.50;3.90;;;12.90;91.70;;;;;;5032735;28;20036;-47
2023/07/25 04:02:26;;;;;;;6.63;3.42;;;12.90;91.60;;;;;;5031915;28;20409;-47
2023/07/25 04:04:51;;;;;;;6.10;4.03;;;12.90;91.70;;;;;;5033042;28;20025;-46
2023/07/25 04:07:17;;;;;;;7.90;4.32;;;13.00;91.70;;;;;;5030731;28;20021;-46
2023/07/25 04:09:43;;;;;;;12.05;5.38;;;13.00;91.80;;;;;;5033744;28;20065;-50
2023/07/25 04:12:10;;;;;;;14.10;5.75;;;12.90;91.70;;;;;;5031539;28;20030;-50
2023/07/25 04:14:39;;;;;;;7.50;4.05;;;13.00;91.70;;;;;;5032885;28;20033;-50
2023/07/25 04:17:06;;;;;;;9.30;5.07;;;13.00;91.90;;;;;;5031018;28;20029;-48
2023/07/25 04:19:34;;;;;;;9.25;4.40;;;13.10;91.90;;;;;;5032614;28;20052;-48
2023/07/25 04:22:03;;;;;;;11.00;4.25;;;13.10;92.00;;;;;;5031532;28;20033;-49
2023/07/25 04:24:28;;;;;;;8.85;4.00;;;13.20;92.10;;;;;;5027014;28;20080;-49
2023/07/25 04:27:01;;;;;;;10.77;4.90;;;13.20;92.10;;;;;;5013291;28;20042;-47
2023/07/25 04:29:28;;;;;;;10.88;4.47;;;13.30;92.20;;;;;;5018495;28;20029;-49
2023/07/25 04:31:56;;;;;;;9.02;4.07;;;13.30;92.20;;;;;;5028876;28;20477;-46
2023/07/25 04:34:25;;;;;;;8.90;5.10;;;13.40;92.30;;;;;;5032649;28;20028;-49
2023/07/25 04:36:54;;;;;;;7.55;4.25;;;13.40;92.20;;;;;;5033741;28;20018;-47
2023/07/25 04:39:21;;;;;;;10.98;5.32;;;13.40;92.10;;;;;;5030068;28;20033;-48
2023/07/25 04:41:48;;;;;;;7.05;3.75;;;13.40;92.20;;;;;;5032942;28;20050;-47
2023/07/25 04:44:18;;;;;;;6.82;3.80;;;13.40;92.00;;;;;;5031715;28;20342;-47
2023/07/25 04:46:45;;;;;;;11.10;4.68;;;13.40;92.00;;;;;;5032468;28;20033;-47
2023/07/25 04:49:13;;;;;;;8.30;4.20;;;13.40;92.00;;;;;;5015919;28;20335;-48
2023/07/25 04:51:41;;;;;;;8.52;4.32;;;13.40;92.00;;;;;;5028863;28;20029;-48
2023/07/25 04:54:07;;;;;;;8.23;4.22;;;13.40;92.10;;;;;;5031777;28;20037;-47
2023/07/25 04:56:36;;;;;;;10.02;4.10;;;13.40;91.90;;;;;;5030294;28;20079;-47
2023/07/25 04:59:04;;;;;;;8.07;3.50;;;13.40;92.00;;;;;;5032059;28;20021;-51
2023/07/25 05:01:30;;;;;;;8.73;4.95;;;13.40;92.20;;;;;;5028318;28;20018;-53
2023/07/25 05:03:57;;;;;;;7.97;4.78;;;13.40;92.20;;;;;;5031229;28;20041;-48
2023/07/25 05:06:22;;;;;;;7.53;4.63;;;13.40;92.30;;;;;;5031437;28;20036;-49
2023/07/25 05:08:50;;;;;;;7.70;4.22;;;13.50;92.20;;;;;;5017327;28;20026;-47
2023/07/25 05:11:20;;;;;;;8.40;4.90;;;13.50;92.30;;;;;;5023754;28;20037;-50
2023/07/25 05:13:47;;;;;;;;;;;13.50;92.20;;;;;;5023903;28;20413;-48
2023/07/25 05:16:13;;;;;;;9.75;4.43;;;13.50;92.50;;;;;;5029951;28;20252;-52
2023/07/25 05:18:40;;;;;;;8.60;3.88;;;13.60;92.40;;;;;;5029349;28;20036;-50
2023/07/25 05:21:09;;;;;;;10.48;4.10;;;13.60;92.50;;;;;;5030587;28;20385;-50
2023/07/25 05:23:35;;;;;;;8.05;4.22;;;13.50;92.50;;;;;;5014242;28;20037;-48
2023/07/25 05:26:01;;;;;;;6.53;4.00;;;13.60;92.70;;;;;;5031976;28;20033;-47
2023/07/25 05:28:29;;;;;;;8.00;3.78;;;13.60;92.70;;;;;;5029272;28;20471;-47
2023/07/25 05:30:56;;;;;;;9.70;3.72;;;13.70;92.80;;;;;;5029278;28;20029;-48
2023/07/25 05:33:21;;;;;;;8.20;3.80;;;13.70;92.70;;;;;;5031737;28;20045;-48
2023/07/25 05:35:47;;;;;;;8.63;3.85;;;13.70;92.80;;;;;;5030834;28;20022;-48
2023/07/25 05:38:14;;;;;;;7.68;3.65;;;13.80;92.90;;;;;;5029629;28;20025;-50
2023/07/25 05:40:41;;;;;;;7.00;3.20;;;13.80;92.90;;;;;;5029577;28;20022;-49
2023/07/25 05:43:11;;;;;;;7.43;4.13;;;13.80;92.90;;;;;;5030880;28;20069;-48
2023/07/25 05:45:38;;;;;;;8.80;4.35;;;13.80;92.80;;;;;;5028426;28;20454;-47
2023/07/25 05:48:05;;;;;;;7.38;3.50;;;13.80;92.80;;;;;;5031982;28;20021;-47
2023/07/25 05:50:31;;;;;;;4.95;3.08;;;13.80;92.80;;;;;;5019210;28;20355;-46
2023/07/25 05:52:58;;;;;;;9.48;3.85;;;13.90;93.00;;;;;;5013535;28;20801;-47
2023/07/25 05:55:24;;;;;;;9.43;4.35;;;13.90;93.00;;;;;;5030963;28;20093;-47
2023/07/25 05:57:56;;;;;;;8.50;3.30;;;13.90;93.10;;;;;;5030205;28;20165;-47
2023/07/25 06:00:23;;;;;;;8.05;3.40;;;14.10;93.20;;;;;;5024733;28;20131;-48
2023/07/25 06:02:52;;;;;;;7.63;3.28;;;14.10;93.20;;;;;;5029817;28;20044;-47
2023/07/25 06:05:18;;;;;;;6.53;2.88;;;14.20;93.10;;;;;;5028025;28;20021;-47
2023/07/25 06:07:44;;;;;;;7.45;3.25;;;14.30;93.20;;;;;;5030451;28;20048;-47
2023/07/25 06:10:11;;;;;;;5.32;3.42;;;14.30;93.00;;;;;;5029678;28;20029;-49
2023/07/25 06:12:38;;;;;;;6.22;3.20;;;14.40;93.00;;;;;;5030294;28;20035;-47
2023/07/25 06:15:06;;;;;;;6.05;3.97;;;14.50;93.10;;;;;;5028781;28;20512;-47
2023/07/25 06:17:34;;;;;;;8.73;3.53;;;14.60;93.00;;;;;;5031138;28;20350;-47
2023/07/25 06:20:03;;;;;;;7.72;3.25;;;14.70;93.20;;;;;;5030525;28;20017;-47
2023/07/25 06:22:31;;;;;;;6.83;3.17;;;14.80;92.90;;;;;;5027331;28;20048;-49
2023/07/25 06:24:57;;;;;;;5.88;2.90;;;14.90;92.80;;;;;;5044274;28;20610;-48
2023/07/25 06:27:22;;;;;;;5.13;2.72;;;14.90;92.70;;;;;;5029554;28;20025;-48
2023/07/25 06:29:48;;;;;;;6.32;3.05;;;15.00;92.80;;;;;;5027761;28;20104;-49
2023/07/25 06:32:15;;;;;;;8.27;2.72;;;15.10;92.50;;;;;;5023257;28;20108;-47
2023/07/25 06:34:42;;;;;;;7.18;2.85;;;15.20;92.30;;;;;;5032158;28;20036;-48
2023/07/25 06:37:09;;;;;;;6.47;3.20;;;15.20;92.30;;;;;;5031596;28;20450;-47
2023/07/25 06:39:36;;;;;;;6.95;3.33;;;15.40;92.50;;;;;;5034368;28;20383;-49
2023/07/25 06:42:03;;;;;;;9.15;3.08;;;15.50;92.40;;;;;;5033649;28;20120;-49
2023/07/25 06:44:32;;;;;;;9.25;2.70;;;15.60;91.90;;;;;;5032044;28;20042;-48
2023/07/25 06:46:59;;;;;;;7.22;2.78;;;15.80;91.60;;;;;;5032790;28;20033;-48
2023/07/25 06:49:27;;;;;;;7.00;2.20;;;15.90;90.50;;;;;;5035450;28;20033;-48
2023/07/25 06:51:55;;;;;;;6.18;2.65;;;15.90;90.70;;;;;;5035022;28;20029;-48
2023/07/25 06:54:22;;;;;;;10.02;4.05;;;15.90;89.70;;;;;;5021092;28;20091;-52
2023/07/25 06:56:48;;;;;;;7.22;2.78;;;16.10;90.10;;;;;;5030861;28;20028;-51
2023/07/25 06:59:15;;;;;;;13.75;3.13;;;16.30;89.80;;;;;;5035605;28;20028;-48
2023/07/25 07:01:42;;;;;;;7.00;2.35;;;16.40;88.90;;;;;;5031433;28;20027;-49
2023/07/25 07:04:09;;;;;;;10.13;2.97;;;16.50;88.80;;;;;;5032880;28;20031;-48
2023/07/25 07:06:35;;;;;;;9.45;2.65;;;16.50;88.40;;;;;;5033208;28;20045;-48
2023/07/25 07:09:02;;;;;;;7.38;2.55;;;16.60;88.70;;;;;;5030643;28;20030;-48
2023/07/25 07:11:29;;;;;;;14.85;2.83;;;16.40;85.80;;;;;;5034437;28;20104;-47
2023/07/25 07:13:59;;;;;;;9.32;2.28;;;16.30;85.50;;;;;;5030991;28;20033;-47
2023/07/25 07:16:26;;;;;;;10.68;3.30;;;16.50;85.60;;;;;;5031200;28;20462;-47
2023/07/25 07:18:53;;;;;;;11.52;2.60;;;16.40;84.80;;;;;;5033847;28;20083;-52
2023/07/25 07:21:20;;;;;;;5.72;1.65;;;16.30;84.60;;;;;;5033862;28;20021;-47
2023/07/25 07:23:45;;;;;;;13.15;2.67;;;16.10;83.10;;;;;;5020640;28;20029;-48
2023/07/25 07:26:17;;;;;;;8.90;2.30;;;15.90;82.90;;;;;;5032482;28;20021;-48
2023/07/25 07:28:43;;;;;;;8.25;1.90;;;15.90;84.10;;;;;;5032674;28;20062;-49
2023/07/25 07:31:12;;;;;;;5.60;2.15;;;16.00;84.00;;;;;;5027765;28;20037;-49
2023/07/25 07:33:39;;;;;;;8.77;2.70;;;16.10;83.70;;;;;;5030477;28;20025;-47
2023/07/25 07:36:05;;;;;;;9.35;2.15;;;16.40;84.10;;;;;;5032579;28;20033;-47
2023/07/25 07:38:31;;;;;;;7.32;1.70;;;16.80;82.70;;;;;;5029550;28;20044;-49
2023/07/25 07:40:58;;;;;;;10.55;2.63;;;17.20;81.90;;;;;;5031035;28;20029;-50
2023/07/25 07:43:25;;;;;;;10.32;2.83;;;17.10;80.00;;;;;;5028979;28;20064;-50
2023/07/25 07:45:52;;;;;;;11.15;1.70;;;16.90;78.80;;;;;;5030786;28;20025;-48
2023/07/25 07:48:17;;;;;;;10.27;3.22;;;16.60;78.90;;;;;;5030241;28;20434;-47
2023/07/25 07:50:44;;;;;;;10.57;2.30;;;16.40;78.90;;;;;;5027723;28;20120;-49
2023/07/25 07:53:11;;;;;;;9.05;2.13;;;16.40;78.60;;;;;;5034789;28;20492;-48
2023/07/25 07:55:42;;;;;;;5.95;2.40;;;16.40;79.90;;;;;;5023619;28;20450;-52
2023/07/25 07:58:09;;;;;;;7.70;1.83;;;16.20;79.20;;;;;;5028967;28;20104;-50
2023/07/25 08:00:39;;;;;;;5.57;1.85;;;16.10;78.50;;;;;;5031062;28;20108;-54
2023/07/25 08:03:05;;;;;;;9.70;2.78;;;16.00;78.90;;;;;;5030641;28;20030;-48
2023/07/25 08:05:31;;;;;;;7.88;2.25;;;16.10;79.80;;;;;;5033795;28;20335;-50
2023/07/25 08:07:58;;;;;;;6.43;1.60;;;16.40;80.50;;;;;;5026204;28;20029;-47
2023/07/25 08:10:33;;;;;;;7.38;2.17;;;16.60;79.90;;;;;;5030340;28;20096;-52
2023/07/25 08:13:00;;;;;;;9.10;2.30;;;16.90;78.50;;;;;;5030424;28;20033;-47
2023/07/25 08:15:27;;;;;;;11.38;2.83;;;17.00;75.30;;;;;;5031715;28;20079;-48
2023/07/25 08:17:59;;;;;;;6.93;1.52;;;16.90;75.70;;;;;;5046856;28;20458;-49
2023/07/25 08:20:26;;;;;;;9.35;2.42;;;16.60;75.70;;;;;;5029553;28;20041;-47
2023/07/25 08:22:55;;;;;;;6.75;1.92;;;16.60;76.30;;;;;;5029867;28;20040;-48
2023/07/25 08:25:22;;;;;;;5.72;1.58;;;16.50;76.80;;;;;;5030839;28;20427;-47
2023/07/25 08:27:48;;;;;;;5.15;1.50;;;16.90;75.30;;;;;;5031971;28;20128;-48
2023/07/25 08:30:15;;;;;;;6.32;1.90;;;17.30;75.10;;;;;;5031367;28;20029;-48
2023/07/25 08:32:42;;;;;;;5.22;1.42;;;17.50;74.60;;;;;;5028333;28;20033;-47
2023/07/25 08:35:09;;;;;;;7.20;2.58;;;18.00;73.00;;;;;;5033178;28;20026;-49
2023/07/25 08:37:36;;;;;;;6.80;1.77;;;18.30;68.10;;;;;;5032823;28;20032;-48
2023/07/25 08:40:03;;;;;;;6.80;1.42;;;18.30;66.40;;;;;;5031702;28;20036;-47
2023/07/25 08:42:32;;;;;;;5.45;1.80;;;18.00;67.50;;;;;;5031429;28;20051;-48
2023/07/25 08:45:00;;;;;;;15.27;2.20;;;17.70;69.60;;;;;;5022483;28;20079;-50
2023/07/25 08:47:28;;;;;;;5.63;1.40;;;17.90;69.90;;;;;;5029802;28;20036;-47
2023/07/25 08:49:57;;;;;;;7.85;1.58;;;17.90;66.10;;;;;;5022594;28;20037;-48
2023/07/25 08:52:28;;;;;;;3.37;1.00;;;18.10;67.00;;;;;;5031984;28;20038;-48
2023/07/25 08:54:55;;;;;;;7.75;1.25;;;18.20;65.00;;;;;;5032682;28;20072;-51
2023/07/25 08:57:27;;;;;;;11.60;1.67;;;18.70;65.90;;;;;;5030610;28;20403;-47
2023/07/25 08:59:54;;;;;;;5.60;1.92;;;19.10;63.50;;;;;;5032223;28;20439;-49
2023/07/25 09:02:22;;;;;;;8.93;1.75;;;18.70;63.00;;;;;;5032371;28;20452;-50
2023/07/25 09:04:50;;;;;;;7.72;2.53;;;18.90;64.30;;;;;;5028919;28;20061;-46
2023/07/25 09:07:16;;;;;;;5.20;1.27;;;19.40;62.10;;;;;;5025875;28;20033;-50
2023/07/25 09:09:43;;;;;;;7.25;1.77;;;19.30;63.00;;;;;;5031407;28;20025;-49
2023/07/25 09:12:10;;;;;;;7.40;1.42;;;18.90;62.20;;;;;;5029886;28;20104;-49
2023/07/25 09:14:39;;;;;;;3.35;0.95;;;19.00;61.60;;;;;;5029748;28;20461;-46
2023/07/25 09:17:06;;;;;;;6.18;1.33;;;19.40;62.00;;;;;;5032612;28;20029;-48
2023/07/25 09:19:33;;;;;;;5.20;1.02;;;20.00;62.00;;;;;;5026347;28;20079;-52
2023/07/25 09:22:00;;;;;;;5.38;1.58;;;19.80;57.90;;;;;;5024903;28;20029;-48
2023/07/25 09:24:45;;;;;;;4.32;1.20;;;19.20;59.60;;;;;;5032010;28;20036;-48
2023/07/25 09:27:17;;;;;;;5.57;1.08;;;19.10;61.50;;;;;;5041793;28;20075;-48
2023/07/25 09:29:47;;;;;;;4.50;1.17;;;19.50;60.40;;;;;;5025468;28;20037;-53
2023/07/25 09:32:32;;;;;;;3.35;1.13;;;19.90;59.40;;;;;;5031084;28;20060;-49
2023/07/25 09:35:16;;;;;;;6.53;0.90;;;20.20;58.60;;;;;;5027271;28;20025;-51
2023/07/25 09:37:54;;;;;;;5.38;1.10;;;20.40;58.50;;;;;;5031039;28;20032;-49
2023/07/25 09:40:21;;;;;;;5.90;1.85;;;19.90;55.80;;;;;;5030040;28;20037;-50
2023/07/25 09:42:51;;;;;;;5.50;1.20;;;19.40;58.00;;;;;;5025966;28;20057;-52
2023/07/25 09:45:20;;;;;;;;;;;19.50;60.80;;;;;;5027350;28;20810;-47
2023/07/25 09:47:50;;;;;;;5.47;2.20;;;19.90;59.60;;;;;;5032459;28;19949;-51
2023/07/25 09:50:17;;;;;;;5.38;1.42;;;20.40;59.00;;;;;;5021556;28;20277;-48
2023/07/25 09:52:46;;;;;;;3.58;1.20;;;20.70;59.10;;;;;;5029715;28;20095;-50
2023/07/25 09:55:13;;;;;;;;;;;20.40;57.60;;;;;;5026698;28;20374;-48
2023/07/25 09:57:40;;;;;;;5.75;1.20;;;20.20;60.70;;;;;;5025062;28;19940;-49
2023/07/25 10:00:09;;;;;;;5.07;1.35;;;20.10;57.90;;;;;;5032693;28;20022;-49
2023/07/25 10:02:37;;;;;;;7.27;1.30;;;20.20;58.40;;;;;;5027909;28;20041;-49
2023/07/25 10:05:06;;;;;;;5.68;1.05;;;20.40;56.60;;;;;;5031966;28;20473;-49
2023/07/25 10:07:33;;;;;;;6.78;1.27;;;20.60;58.60;;;;;;5029141;28;20029;-49
2023/07/25 10:10:03;;;;;;;5.55;1.38;;;20.90;59.90;;;;;;5028247;28;20030;-51
2023/07/25 10:12:31;;;;;;;5.28;1.52;;;20.90;57.00;;;;;;5036323;28;20048;-52
2023/07/25 10:14:56;;;;;;;3.80;1.33;;;21.20;56.70;;;;;;5035317;28;20025;-52
2023/07/25 10:17:24;;;;;;;4.60;1.23;;;20.90;54.30;;;;;;5030406;28;20352;-48
2023/07/25 10:19:58;;;;;;;1.92;0.70;;;20.80;56.00;;;;;;5033255;28;20029;-51
2023/07/25 10:22:42;;;;;;;3.65;0.77;;;21.00;57.10;;;;;;5027880;28;20407;-51
2023/07/25 10:25:28;;;;;;;4.63;1.40;;;21.40;57.30;;;;;;5026936;28;20109;-53
2023/07/25 10:27:58;;;;;;;4.95;1.27;;;21.00;56.50;;;;;;5029021;28;20021;-47
2023/07/25 10:30:26;;;;;;;6.75;1.75;;;20.50;57.60;;;;;;5035687;28;20037;-49
2023/07/25 10:33:06;;;;;;;4.32;1.10;;;20.80;58.20;;;;;;5035942;28;20025;-47
2023/07/25 10:35:54;;;;;;;3.53;1.40;;;20.80;58.40;;;;;;5023062;28;20053;-49
2023/07/25 10:38:33;;;;;;;3.33;1.17;;;20.00;57.40;;;;;;5030937;28;20044;-49
2023/07/25 10:41:19;;;;;;;7.13;1.70;;;20.20;57.00;;;;;;5034757;28;20041;-47
2023/07/25 10:46:35;;;;;;;3.17;0.80;;;20.60;58.50;;;;;;5034896;28;20033;-48
2023/07/25 10:49:21;;;;;;;4.45;1.23;;;19.90;58.10;;;;;;5026627;28;20075;-48
2023/07/25 10:51:51;;;;;;;4.32;1.30;;;19.30;60.10;;;;;;5033921;28;20061;-48
2023/07/25 10:54:22;;;;;;;5.10;1.48;;;18.90;61.00;;;;;;5032652;28;20435;-53
2023/07/25 10:57:25;;;;;;;5.07;1.48;;;18.70;62.60;;;;;;5030854;28;20037;-48
2023/07/25 11:00:08;;;;;;;7.20;1.13;;;18.90;63.40;;;;;;5034719;28;20029;-48
2023/07/25 11:02:52;;;;;;;9.23;1.40;;;18.90;61.90;;;;;;5027330;28;20037;-50
2023/07/25 11:05:39;;;;;;;9.70;1.60;;;19.20;63.30;;;;;;5033340;28;20071;-54
2023/07/25 11:08:05;;;;;;;3.00;1.17;;;19.40;62.60;;;;;;5034420;28;20036;-50
2023/07/25 11:10:34;;;;;;;10.55;1.95;;;19.50;61.30;;;;;;5015945;28;20223;-48
2023/07/25 11:13:01;;;;;;;5.40;1.27;;;19.60;63.40;;;;;;5033012;28;20461;-52
2023/07/25 11:15:30;;;;;;;7.32;1.75;;;19.70;62.00;;;;;;5032538;28;20295;-48
2023/07/25 11:18:04;;;;;;;8.30;1.52;;;19.60;61.20;;;;;;5031363;28;20037;-48
2023/07/25 11:20:31;;;;;;;5.22;1.63;;;19.30;60.60;;;;;;5032213;28;20171;-51
2023/07/25 11:22:58;;;;;;;5.90;1.40;;;18.70;62.30;;;;;;5031406;28;20037;-48
2023/07/25 11:25:25;;;;;;;6.45;1.13;;;18.50;64.70;;;;;;5029695;28;20037;-50
2023/07/25 11:27:51;;;;;;;6.70;1.63;;;18.20;64.20;;;;;;5030819;28;20044;-50
2023/07/25 11:30:21;;;;;;;6.40;1.70;;;18.10;65.50;;;;;;5020485;28;20038;-49
2023/07/25 11:33:05;;;;;;;5.47;1.23;;;18.10;65.10;;;;;;5032201;28;20060;-47
2023/07/25 11:35:32;;;;;;;9.63;1.60;;;18.20;65.50;;;;;;5048001;28;20560;-48
2023/07/25 11:38:02;;;;;;;3.95;1.25;;;18.70;66.40;;;;;;5029744;28;20559;-52
2023/07/25 11:40:36;;;;;;;6.20;1.45;;;19.10;64.70;;;;;;5033048;28;20042;-50
2023/07/25 11:43:11;;;;;;;8.48;1.38;;;19.30;63.40;;;;;;5033482;28;20045;-47
2023/07/25 11:45:39;;;;;;;6.10;1.08;;;18.90;61.90;;;;;;5033181;28;20481;-51
2023/07/25 11:48:08;;;;;;;16.20;2.00;;;19.00;62.30;;;;;;5023063;28;20361;-48
2023/07/25 11:50:37;;;;;;;2.60;1.02;;;19.30;62.90;;;;;;5033891;28;20029;-48
2023/07/25 11:53:05;;;;;;;4.40;1.42;;;19.60;61.50;;;;;;5030507;28;20033;-48
2023/07/25 11:55:32;;;;;;;4.55;1.23;;;19.90;60.10;;;;;;5032348;28;20040;-49
2023/07/25 11:58:04;;;;;;;6.00;2.00;;;19.80;60.20;;;;;;5031712;28;20029;-52
2023/07/25 12:00:42;;;;;;;7.43;1.80;;;19.80;60.10;;;;;;5023462;28;20040;-53
2023/07/25 12:03:27;;;;;;;4.35;1.45;;;19.50;60.30;;;;;;5028211;28;20040;-51
2023/07/25 12:05:58;;;;;;;6.53;1.85;;;19.20;62.00;;;;;;5023216;28;20105;-50
2023/07/25 12:08:34;;;;;;;5.57;1.50;;;18.90;61.00;;;;;;5031942;28;20029;-50
2023/07/25 12:11:07;;;;;;;3.90;1.17;;;18.80;62.80;;;;;;5026554;28;20041;-49
2023/07/25 12:14:03;;;;;;;5.63;1.08;;;18.60;61.80;;;;;;5020855;28;20442;-49
2023/07/25 12:16:47;;;;;;;6.65;1.33;;;18.50;61.70;;;;;;5024773;28;20033;-49
2023/07/25 12:19:15;;;;;;;5.05;1.05;;;18.60;62.60;;;;;;5032817;28;20082;-49
2023/07/25 12:21:44;;;;;;;4.63;1.20;;;18.40;60.60;;;;;;5032161;28;20021;-50
2023/07/25 12:24:12;;;;;;;4.13;1.42;;;18.40;62.50;;;;;;5028187;28;20021;-50
2023/07/25 12:26:48;;;;;;;6.40;1.80;;;18.40;63.80;;;;;;5023957;28;20064;-49
2023/07/25 12:29:16;;;;;;;8.85;1.10;;;18.90;63.90;;;;;;5022362;28;20461;-51
2023/07/25 12:31:43;;;;;;;8.13;1.77;;;19.00;63.40;;;;;;5029743;28;20030;-48
2023/07/25 12:34:22;;;;;;;6.38;1.20;;;19.00;63.00;;;;;;5030434;28;20040;-49
2023/07/25 12:36:51;;;;;;;5.50;1.13;;;18.90;63.00;;;;;;5031439;28;20117;-50
2023/07/25 12:39:20;;;;;;;4.68;1.55;;;18.60;62.90;;;;;;5026894;28;20359;-48
2023/07/25 12:41:46;;;;;;;5.95;1.85;;;18.80;63.90;;;;;;5017790;28;20099;-48
2023/07/25 12:44:13;;;;;;;4.18;0.95;;;19.00;63.40;;;;;;5032550;28;20094;-48
2023/07/25 12:46:40;;;;;;;5.15;1.40;;;19.00;59.60;;;;;;5031930;28;20029;-52
2023/07/25 12:49:10;;;;;;;5.20;1.00;;;19.40;60.40;;;;;;5032374;28;20040;-50
2023/07/25 12:51:37;;;;;;;2.75;0.70;;;19.40;58.70;;;;;;5029502;28;20480;-50
2023/07/25 12:54:04;;;;;;;3.95;1.10;;;19.30;60.30;;;;;;5025089;28;20335;-50
2023/07/25 12:56:30;;;;;;;4.97;1.92;;;19.30;59.00;;;;;;5032400;28;20071;-48